sensor_id;sensor_type;location;lat;lon;timestamp;P1;durP1;ratioP1;P2;durP2;ratioP2
74656;SDS011;63185;45.642;13.764;2023-04-06T00:00:55;9.85;;;3.90;;
74656;SDS011;63185;45.642;13.764;2023-04-06T00:03:21;8.48;;;3.97;;
74656;SDS011;63185;45.642;13.764;2023-04-06T00:05:47;10.10;;;3.35;;
74656;SDS011;63185;45.642;13.764;2023-04-06T00:08:13;8.80;;;3.50;;
74656;SDS011;63185;45.642;13.764;2023-04-06T00:10:39;9.13;;;3.58;;
74656;SDS011;63185;45.642;13.764;2023-04-06T00:13:05;9.40;;;3.83;;
74656;SDS011;63185;45.642;13.764;2023-04-06T00:15:32;9.75;;;3.70;;
74656;SDS011;63185;45.642;13.764;2023-04-06T00:17:58;9.40;;;3.95;;
74656;SDS011;63185;45.642;13.764;2023-04-06T00:20:24;7.43;;;3.40;;
74656;SDS011;63185;45.642;13.764;2023-04-06T00:22:50;9.18;;;3.55;;
74656;SDS011;63185;45.642;13.764;2023-04-06T00:25:15;7.75;;;3.60;;
74656;SDS011;63185;45.642;13.764;2023-04-06T00:27:41;12.65;;;3.83;;
74656;SDS011;63185;45.642;13.764;2023-04-06T00:30:07;9.25;;;3.70;;
74656;SDS011;63185;45.642;13.764;2023-04-06T00:32:34;10.73;;;3.67;;
74656;SDS011;63185;45.642;13.764;2023-04-06T00:35:04;12.27;;;3.83;;
74656;SDS011;63185;45.642;13.764;2023-04-06T00:37:31;10.95;;;3.53;;
74656;SDS011;63185;45.642;13.764;2023-04-06T00:39:57;10.27;;;3.95;;
74656;SDS011;63185;45.642;13.764;2023-04-06T00:42:23;7.47;;;3.90;;
74656;SDS011;63185;45.642;13.764;2023-04-06T00:44:54;9.47;;;3.70;;
74656;SDS011;63185;45.642;13.764;2023-04-06T00:47:22;7.40;;;3.72;;
74656;SDS011;63185;45.642;13.764;2023-04-06T00:49:50;10.30;;;3.83;;
74656;SDS011;63185;45.642;13.764;2023-04-06T00:52:16;9.10;;;3.75;;
74656;SDS011;63185;45.642;13.764;2023-04-06T00:54:42;9.43;;;3.83;;
74656;SDS011;63185;45.642;13.764;2023-04-06T00:57:08;9.90;;;4.03;;
74656;SDS011;63185;45.642;13.764;2023-04-06T00:59:33;11.25;;;3.67;;
74656;SDS011;63185;45.642;13.764;2023-04-06T01:01:59;10.30;;;4.20;;
74656;SDS011;63185;45.642;13.764;2023-04-06T01:04:26;9.00;;;3.92;;
74656;SDS011;63185;45.642;13.764;2023-04-06T01:06:52;10.13;;;3.42;;
74656;SDS011;63185;45.642;13.764;2023-04-06T01:09:18;10.18;;;3.85;;
74656;SDS011;63185;45.642;13.764;2023-04-06T01:11:44;10.05;;;4.10;;
74656;SDS011;63185;45.642;13.764;2023-04-06T01:14:09;8.40;;;3.55;;
74656;SDS011;63185;45.642;13.764;2023-04-06T01:16:35;10.93;;;3.92;;
74656;SDS011;63185;45.642;13.764;2023-04-06T01:19:07;10.18;;;3.97;;
74656;SDS011;63185;45.642;13.764;2023-04-06T01:21:34;12.23;;;4.68;;
74656;SDS011;63185;45.642;13.764;2023-04-06T01:24:00;11.95;;;4.20;;
74656;SDS011;63185;45.642;13.764;2023-04-06T01:26:25;9.65;;;3.72;;
74656;SDS011;63185;45.642;13.764;2023-04-06T01:28:52;11.45;;;4.38;;
74656;SDS011;63185;45.642;13.764;2023-04-06T01:31:17;14.23;;;4.47;;
74656;SDS011;63185;45.642;13.764;2023-04-06T01:33:43;10.52;;;3.90;;
74656;SDS011;63185;45.642;13.764;2023-04-06T01:36:09;10.95;;;4.05;;
74656;SDS011;63185;45.642;13.764;2023-04-06T01:38:34;9.98;;;4.38;;
74656;SDS011;63185;45.642;13.764;2023-04-06T01:41:00;12.73;;;4.28;;
74656;SDS011;63185;45.642;13.764;2023-04-06T01:43:26;11.90;;;4.35;;
74656;SDS011;63185;45.642;13.764;2023-04-06T01:45:52;11.38;;;4.38;;
74656;SDS011;63185;45.642;13.764;2023-04-06T01:48:18;10.80;;;4.30;;
74656;SDS011;63185;45.642;13.764;2023-04-06T01:50:43;11.73;;;4.45;;
74656;SDS011;63185;45.642;13.764;2023-04-06T01:53:09;12.35;;;4.35;;
74656;SDS011;63185;45.642;13.764;2023-04-06T01:55:35;12.82;;;4.65;;
74656;SDS011;63185;45.642;13.764;2023-04-06T01:58:01;10.85;;;4.20;;
74656;SDS011;63185;45.642;13.764;2023-04-06T02:00:26;11.55;;;3.92;;
74656;SDS011;63185;45.642;13.764;2023-04-06T02:02:52;11.32;;;4.18;;
74656;SDS011;63185;45.642;13.764;2023-04-06T02:05:19;13.30;;;4.38;;
74656;SDS011;63185;45.642;13.764;2023-04-06T02:07:45;8.65;;;4.13;;
74656;SDS011;63185;45.642;13.764;2023-04-06T02:10:14;9.27;;;4.13;;
74656;SDS011;63185;45.642;13.764;2023-04-06T02:12:40;7.53;;;3.95;;
74656;SDS011;63185;45.642;13.764;2023-04-06T02:15:06;9.73;;;3.92;;
74656;SDS011;63185;45.642;13.764;2023-04-06T02:17:32;13.40;;;4.00;;
74656;SDS011;63185;45.642;13.764;2023-04-06T02:19:58;8.63;;;4.03;;
74656;SDS011;63185;45.642;13.764;2023-04-06T02:22:23;7.88;;;3.92;;
74656;SDS011;63185;45.642;13.764;2023-04-06T02:24:49;7.53;;;4.20;;
74656;SDS011;63185;45.642;13.764;2023-04-06T02:27:15;13.88;;;4.40;;
74656;SDS011;63185;45.642;13.764;2023-04-06T02:29:41;10.27;;;4.40;;
74656;SDS011;63185;45.642;13.764;2023-04-06T02:32:06;11.50;;;4.63;;
74656;SDS011;63185;45.642;13.764;2023-04-06T02:34:32;8.82;;;3.78;;
74656;SDS011;63185;45.642;13.764;2023-04-06T02:36:58;7.47;;;4.20;;
74656;SDS011;63185;45.642;13.764;2023-04-06T02:39:24;8.18;;;3.53;;
74656;SDS011;63185;45.642;13.764;2023-04-06T02:41:50;9.45;;;4.20;;
74656;SDS011;63185;45.642;13.764;2023-04-06T02:44:15;9.30;;;4.50;;
74656;SDS011;63185;45.642;13.764;2023-04-06T02:46:41;14.70;;;4.63;;
74656;SDS011;63185;45.642;13.764;2023-04-06T02:49:07;9.63;;;3.92;;
74656;SDS011;63185;45.642;13.764;2023-04-06T02:51:32;9.77;;;4.30;;
74656;SDS011;63185;45.642;13.764;2023-04-06T02:53:58;9.77;;;3.83;;
74656;SDS011;63185;45.642;13.764;2023-04-06T02:56:24;14.82;;;4.40;;
74656;SDS011;63185;45.642;13.764;2023-04-06T02:58:51;9.63;;;3.85;;
74656;SDS011;63185;45.642;13.764;2023-04-06T03:01:17;9.82;;;4.07;;
74656;SDS011;63185;45.642;13.764;2023-04-06T03:03:43;9.45;;;4.63;;
74656;SDS011;63185;45.642;13.764;2023-04-06T03:06:08;8.88;;;3.78;;
74656;SDS011;63185;45.642;13.764;2023-04-06T03:08:34;9.65;;;4.00;;
74656;SDS011;63185;45.642;13.764;2023-04-06T03:11:00;9.35;;;4.10;;
74656;SDS011;63185;45.642;13.764;2023-04-06T03:13:26;10.35;;;3.58;;
74656;SDS011;63185;45.642;13.764;2023-04-06T03:15:51;11.88;;;4.50;;
74656;SDS011;63185;45.642;13.764;2023-04-06T03:18:20;9.38;;;3.92;;
74656;SDS011;63185;45.642;13.764;2023-04-06T03:20:48;7.13;;;3.88;;
74656;SDS011;63185;45.642;13.764;2023-04-06T03:23:13;8.40;;;4.25;;
74656;SDS011;63185;45.642;13.764;2023-04-06T03:25:39;9.45;;;3.95;;
74656;SDS011;63185;45.642;13.764;2023-04-06T03:28:05;8.13;;;3.92;;
74656;SDS011;63185;45.642;13.764;2023-04-06T03:30:31;9.10;;;3.92;;
74656;SDS011;63185;45.642;13.764;2023-04-06T03:32:56;10.10;;;4.25;;
74656;SDS011;63185;45.642;13.764;2023-04-06T03:35:22;9.05;;;3.85;;
74656;SDS011;63185;45.642;13.764;2023-04-06T03:37:48;9.52;;;4.05;;
74656;SDS011;63185;45.642;13.764;2023-04-06T03:40:14;10.55;;;3.92;;
74656;SDS011;63185;45.642;13.764;2023-04-06T03:42:40;10.07;;;4.32;;
74656;SDS011;63185;45.642;13.764;2023-04-06T03:45:06;11.75;;;4.15;;
74656;SDS011;63185;45.642;13.764;2023-04-06T03:47:32;8.73;;;4.05;;
74656;SDS011;63185;45.642;13.764;2023-04-06T03:49:57;11.50;;;3.95;;
74656;SDS011;63185;45.642;13.764;2023-04-06T03:52:23;11.52;;;3.97;;
74656;SDS011;63185;45.642;13.764;2023-04-06T03:54:49;8.55;;;4.15;;
74656;SDS011;63185;45.642;13.764;2023-04-06T03:57:15;8.25;;;3.70;;
74656;SDS011;63185;45.642;13.764;2023-04-06T03:59:40;10.45;;;4.18;;
74656;SDS011;63185;45.642;13.764;2023-04-06T04:02:06;8.48;;;3.70;;
74656;SDS011;63185;45.642;13.764;2023-04-06T04:04:32;10.93;;;3.95;;
74656;SDS011;63185;45.642;13.764;2023-04-06T04:06:57;10.93;;;4.00;;
74656;SDS011;63185;45.642;13.764;2023-04-06T04:09:23;7.40;;;3.58;;
74656;SDS011;63185;45.642;13.764;2023-04-06T04:11:49;12.05;;;4.30;;
74656;SDS011;63185;45.642;13.764;2023-04-06T04:14:15;10.60;;;4.30;;
74656;SDS011;63185;45.642;13.764;2023-04-06T04:16:40;8.88;;;4.00;;
74656;SDS011;63185;45.642;13.764;2023-04-06T04:19:06;9.95;;;3.85;;
74656;SDS011;63185;45.642;13.764;2023-04-06T04:21:32;9.45;;;3.65;;
74656;SDS011;63185;45.642;13.764;2023-04-06T04:23:58;10.82;;;5.00;;
74656;SDS011;63185;45.642;13.764;2023-04-06T04:26:24;14.32;;;4.10;;
74656;SDS011;63185;45.642;13.764;2023-04-06T04:28:50;7.18;;;3.78;;
74656;SDS011;63185;45.642;13.764;2023-04-06T04:31:15;12.35;;;4.55;;
74656;SDS011;63185;45.642;13.764;2023-04-06T04:33:43;7.97;;;3.67;;
74656;SDS011;63185;45.642;13.764;2023-04-06T04:36:09;9.05;;;3.70;;
74656;SDS011;63185;45.642;13.764;2023-04-06T04:38:35;9.60;;;3.83;;
74656;SDS011;63185;45.642;13.764;2023-04-06T04:41:01;11.63;;;4.53;;
74656;SDS011;63185;45.642;13.764;2023-04-06T04:43:26;15.00;;;4.40;;
74656;SDS011;63185;45.642;13.764;2023-04-06T04:45:52;12.73;;;3.70;;
74656;SDS011;63185;45.642;13.764;2023-04-06T04:48:18;10.77;;;3.90;;
74656;SDS011;63185;45.642;13.764;2023-04-06T04:50:44;9.20;;;3.80;;
74656;SDS011;63185;45.642;13.764;2023-04-06T04:53:09;10.93;;;3.85;;
74656;SDS011;63185;45.642;13.764;2023-04-06T04:55:35;7.85;;;3.75;;
74656;SDS011;63185;45.642;13.764;2023-04-06T04:58:01;9.13;;;3.92;;
74656;SDS011;63185;45.642;13.764;2023-04-06T05:00:27;7.60;;;3.72;;
74656;SDS011;63185;45.642;13.764;2023-04-06T05:02:53;8.27;;;3.70;;
74656;SDS011;63185;45.642;13.764;2023-04-06T05:05:19;10.45;;;3.83;;
74656;SDS011;63185;45.642;13.764;2023-04-06T05:07:45;7.38;;;3.60;;
74656;SDS011;63185;45.642;13.764;2023-04-06T05:10:10;7.53;;;3.78;;
74656;SDS011;63185;45.642;13.764;2023-04-06T05:12:37;8.13;;;3.75;;
74656;SDS011;63185;45.642;13.764;2023-04-06T05:15:03;10.70;;;4.15;;
74656;SDS011;63185;45.642;13.764;2023-04-06T05:17:29;8.95;;;3.65;;
74656;SDS011;63185;45.642;13.764;2023-04-06T05:19:55;7.93;;;3.58;;
74656;SDS011;63185;45.642;13.764;2023-04-06T05:22:21;8.70;;;4.20;;
74656;SDS011;63185;45.642;13.764;2023-04-06T05:24:46;8.13;;;3.60;;
74656;SDS011;63185;45.642;13.764;2023-04-06T05:27:12;7.93;;;3.50;;
74656;SDS011;63185;45.642;13.764;2023-04-06T05:29:38;10.10;;;3.30;;
74656;SDS011;63185;45.642;13.764;2023-04-06T05:32:04;7.82;;;3.63;;
74656;SDS011;63185;45.642;13.764;2023-04-06T05:34:31;10.63;;;3.97;;
74656;SDS011;63185;45.642;13.764;2023-04-06T05:36:56;9.80;;;3.50;;
74656;SDS011;63185;45.642;13.764;2023-04-06T05:39:22;8.25;;;4.00;;
74656;SDS011;63185;45.642;13.764;2023-04-06T05:41:48;10.93;;;3.75;;
74656;SDS011;63185;45.642;13.764;2023-04-06T05:44:14;7.32;;;3.50;;
74656;SDS011;63185;45.642;13.764;2023-04-06T05:46:40;7.55;;;3.67;;
74656;SDS011;63185;45.642;13.764;2023-04-06T05:49:06;18.58;;;7.68;;
74656;SDS011;63185;45.642;13.764;2023-04-06T05:51:31;9.18;;;4.10;;
74656;SDS011;63185;45.642;13.764;2023-04-06T05:53:57;8.70;;;4.22;;
74656;SDS011;63185;45.642;13.764;2023-04-06T05:56:23;10.82;;;4.30;;
74656;SDS011;63185;45.642;13.764;2023-04-06T05:58:49;7.43;;;3.20;;
74656;SDS011;63185;45.642;13.764;2023-04-06T06:01:15;11.05;;;3.55;;
74656;SDS011;63185;45.642;13.764;2023-04-06T06:03:40;8.05;;;3.60;;
74656;SDS011;63185;45.642;13.764;2023-04-06T06:06:06;8.18;;;3.63;;
74656;SDS011;63185;45.642;13.764;2023-04-06T06:08:32;8.70;;;3.67;;
74656;SDS011;63185;45.642;13.764;2023-04-06T06:10:58;11.77;;;3.90;;
74656;SDS011;63185;45.642;13.764;2023-04-06T06:13:23;6.55;;;3.63;;
74656;SDS011;63185;45.642;13.764;2023-04-06T06:15:49;13.00;;;4.05;;
74656;SDS011;63185;45.642;13.764;2023-04-06T06:18:15;8.38;;;3.10;;
74656;SDS011;63185;45.642;13.764;2023-04-06T06:20:41;9.32;;;3.47;;
74656;SDS011;63185;45.642;13.764;2023-04-06T06:23:07;9.30;;;3.47;;
74656;SDS011;63185;45.642;13.764;2023-04-06T06:25:33;7.20;;;3.55;;
74656;SDS011;63185;45.642;13.764;2023-04-06T06:27:59;8.27;;;3.53;;
74656;SDS011;63185;45.642;13.764;2023-04-06T06:30:24;7.80;;;3.72;;
74656;SDS011;63185;45.642;13.764;2023-04-06T06:32:51;7.28;;;3.72;;
74656;SDS011;63185;45.642;13.764;2023-04-06T06:35:16;12.05;;;3.50;;
74656;SDS011;63185;45.642;13.764;2023-04-06T06:37:42;7.93;;;3.60;;
74656;SDS011;63185;45.642;13.764;2023-04-06T06:40:08;9.93;;;3.78;;
74656;SDS011;63185;45.642;13.764;2023-04-06T06:42:35;11.52;;;3.60;;
74656;SDS011;63185;45.642;13.764;2023-04-06T06:45:01;7.25;;;3.50;;
74656;SDS011;63185;45.642;13.764;2023-04-06T06:47:27;9.95;;;4.05;;
74656;SDS011;63185;45.642;13.764;2023-04-06T06:49:53;8.32;;;3.28;;
74656;SDS011;63185;45.642;13.764;2023-04-06T06:52:19;10.60;;;3.95;;
74656;SDS011;63185;45.642;13.764;2023-04-06T06:54:45;9.95;;;3.75;;
74656;SDS011;63185;45.642;13.764;2023-04-06T06:57:11;6.53;;;3.15;;
74656;SDS011;63185;45.642;13.764;2023-04-06T06:59:36;7.22;;;3.22;;
74656;SDS011;63185;45.642;13.764;2023-04-06T07:02:02;8.45;;;4.05;;
74656;SDS011;63185;45.642;13.764;2023-04-06T07:04:28;8.68;;;3.92;;
74656;SDS011;63185;45.642;13.764;2023-04-06T07:06:53;9.25;;;3.78;;
74656;SDS011;63185;45.642;13.764;2023-04-06T07:09:19;8.32;;;3.80;;
74656;SDS011;63185;45.642;13.764;2023-04-06T07:11:45;9.02;;;3.80;;
74656;SDS011;63185;45.642;13.764;2023-04-06T07:14:11;7.15;;;3.42;;
74656;SDS011;63185;45.642;13.764;2023-04-06T07:16:36;8.15;;;3.50;;
74656;SDS011;63185;45.642;13.764;2023-04-06T07:19:02;10.13;;;3.58;;
74656;SDS011;63185;45.642;13.764;2023-04-06T07:21:28;5.95;;;3.38;;
74656;SDS011;63185;45.642;13.764;2023-04-06T07:23:54;12.35;;;3.85;;
74656;SDS011;63185;45.642;13.764;2023-04-06T07:26:20;9.73;;;3.85;;
74656;SDS011;63185;45.642;13.764;2023-04-06T07:28:45;10.57;;;3.80;;
74656;SDS011;63185;45.642;13.764;2023-04-06T07:31:11;9.68;;;3.50;;
74656;SDS011;63185;45.642;13.764;2023-04-06T07:33:37;11.23;;;3.92;;
74656;SDS011;63185;45.642;13.764;2023-04-06T07:36:03;7.20;;;3.30;;
74656;SDS011;63185;45.642;13.764;2023-04-06T07:38:29;7.63;;;3.63;;
74656;SDS011;63185;45.642;13.764;2023-04-06T07:40:55;11.85;;;3.70;;
74656;SDS011;63185;45.642;13.764;2023-04-06T07:43:21;9.85;;;3.67;;
74656;SDS011;63185;45.642;13.764;2023-04-06T07:45:47;8.30;;;3.70;;
74656;SDS011;63185;45.642;13.764;2023-04-06T07:48:12;12.70;;;4.10;;
74656;SDS011;63185;45.642;13.764;2023-04-06T07:50:38;9.07;;;3.42;;
74656;SDS011;63185;45.642;13.764;2023-04-06T07:53:04;7.35;;;3.45;;
74656;SDS011;63185;45.642;13.764;2023-04-06T07:55:30;8.00;;;3.63;;
74656;SDS011;63185;45.642;13.764;2023-04-06T07:57:56;10.93;;;4.00;;
74656;SDS011;63185;45.642;13.764;2023-04-06T08:00:21;10.88;;;3.83;;
74656;SDS011;63185;45.642;13.764;2023-04-06T08:02:47;6.25;;;3.30;;
74656;SDS011;63185;45.642;13.764;2023-04-06T08:05:13;7.25;;;3.58;;
74656;SDS011;63185;45.642;13.764;2023-04-06T08:07:39;7.53;;;3.47;;
74656;SDS011;63185;45.642;13.764;2023-04-06T08:10:05;11.15;;;3.65;;
74656;SDS011;63185;45.642;13.764;2023-04-06T08:12:32;11.45;;;3.75;;
74656;SDS011;63185;45.642;13.764;2023-04-06T08:14:58;8.63;;;3.85;;
74656;SDS011;63185;45.642;13.764;2023-04-06T08:17:24;11.65;;;3.97;;
74656;SDS011;63185;45.642;13.764;2023-04-06T08:19:52;11.23;;;4.20;;
74656;SDS011;63185;45.642;13.764;2023-04-06T08:22:18;7.30;;;3.63;;
74656;SDS011;63185;45.642;13.764;2023-04-06T08:24:43;8.88;;;3.42;;
74656;SDS011;63185;45.642;13.764;2023-04-06T08:27:09;8.77;;;3.75;;
74656;SDS011;63185;45.642;13.764;2023-04-06T08:29:35;6.60;;;3.20;;
74656;SDS011;63185;45.642;13.764;2023-04-06T08:32:01;12.02;;;3.38;;
74656;SDS011;63185;45.642;13.764;2023-04-06T08:34:30;7.10;;;3.80;;
74656;SDS011;63185;45.642;13.764;2023-04-06T08:37:00;8.68;;;3.50;;
74656;SDS011;63185;45.642;13.764;2023-04-06T08:39:25;7.33;;;3.40;;
74656;SDS011;63185;45.642;13.764;2023-04-06T08:41:52;10.45;;;3.58;;
74656;SDS011;63185;45.642;13.764;2023-04-06T08:44:21;9.25;;;3.75;;
74656;SDS011;63185;45.642;13.764;2023-04-06T08:46:47;7.63;;;4.15;;
74656;SDS011;63185;45.642;13.764;2023-04-06T08:49:15;7.85;;;3.83;;
74656;SDS011;63185;45.642;13.764;2023-04-06T08:51:41;6.70;;;3.80;;
74656;SDS011;63185;45.642;13.764;2023-04-06T08:54:07;7.90;;;4.00;;
74656;SDS011;63185;45.642;13.764;2023-04-06T08:56:36;7.90;;;3.65;;
74656;SDS011;63185;45.642;13.764;2023-04-06T08:59:03;6.78;;;3.55;;
74656;SDS011;63185;45.642;13.764;2023-04-06T09:01:30;7.43;;;3.70;;
74656;SDS011;63185;45.642;13.764;2023-04-06T09:03:59;8.10;;;3.53;;
74656;SDS011;63185;45.642;13.764;2023-04-06T09:06:26;7.53;;;3.55;;
74656;SDS011;63185;45.642;13.764;2023-04-06T09:08:52;7.85;;;3.30;;
74656;SDS011;63185;45.642;13.764;2023-04-06T09:11:18;8.80;;;3.67;;
74656;SDS011;63185;45.642;13.764;2023-04-06T09:13:45;9.68;;;3.88;;
74656;SDS011;63185;45.642;13.764;2023-04-06T09:16:21;6.90;;;3.20;;
74656;SDS011;63185;45.642;13.764;2023-04-06T09:18:48;7.90;;;3.33;;
74656;SDS011;63185;45.642;13.764;2023-04-06T09:21:18;6.32;;;3.40;;
74656;SDS011;63185;45.642;13.764;2023-04-06T09:23:44;8.07;;;4.03;;
74656;SDS011;63185;45.642;13.764;2023-04-06T09:26:14;7.78;;;3.78;;
74656;SDS011;63185;45.642;13.764;2023-04-06T09:28:48;9.85;;;3.33;;
74656;SDS011;63185;45.642;13.764;2023-04-06T09:31:16;7.85;;;3.53;;
74656;SDS011;63185;45.642;13.764;2023-04-06T09:33:46;9.73;;;3.40;;
74656;SDS011;63185;45.642;13.764;2023-04-06T09:36:12;10.02;;;3.65;;
74656;SDS011;63185;45.642;13.764;2023-04-06T09:41:26;8.40;;;3.28;;
74656;SDS011;63185;45.642;13.764;2023-04-06T09:46:30;7.80;;;3.63;;
74656;SDS011;63185;45.642;13.764;2023-04-06T09:48:58;7.30;;;4.05;;
74656;SDS011;63185;45.642;13.764;2023-04-06T09:51:34;8.02;;;3.88;;
74656;SDS011;63185;45.642;13.764;2023-04-06T09:54:02;9.52;;;4.38;;
74656;SDS011;63185;45.642;13.764;2023-04-06T09:59:08;9.48;;;3.42;;
74656;SDS011;63185;45.642;13.764;2023-04-06T10:01:38;6.53;;;3.67;;
74656;SDS011;63185;45.642;13.764;2023-04-06T10:07:00;9.95;;;3.80;;
74656;SDS011;63185;45.642;13.764;2023-04-06T10:09:28;7.45;;;3.78;;
74656;SDS011;63185;45.642;13.764;2023-04-06T10:12:02;6.50;;;4.20;;
74656;SDS011;63185;45.642;13.764;2023-04-06T10:14:32;8.43;;;4.22;;
74656;SDS011;63185;45.642;13.764;2023-04-06T10:17:05;9.30;;;4.15;;
74656;SDS011;63185;45.642;13.764;2023-04-06T10:19:49;6.85;;;4.18;;
74656;SDS011;63185;45.642;13.764;2023-04-06T10:22:39;7.93;;;4.40;;
74656;SDS011;63185;45.642;13.764;2023-04-06T10:25:09;10.00;;;4.35;;
74656;SDS011;63185;45.642;13.764;2023-04-06T10:27:35;8.07;;;4.18;;
74656;SDS011;63185;45.642;13.764;2023-04-06T10:30:04;7.32;;;3.67;;
74656;SDS011;63185;45.642;13.764;2023-04-06T10:35:09;8.70;;;4.40;;
74656;SDS011;63185;45.642;13.764;2023-04-06T10:40:32;9.05;;;4.20;;
74656;SDS011;63185;45.642;13.764;2023-04-06T10:43:08;9.95;;;5.15;;
74656;SDS011;63185;45.642;13.764;2023-04-06T10:45:38;13.82;;;5.10;;
74656;SDS011;63185;45.642;13.764;2023-04-06T10:50:49;8.38;;;4.18;;
74656;SDS011;63185;45.642;13.764;2023-04-06T10:53:22;9.18;;;4.65;;
74656;SDS011;63185;45.642;13.764;2023-04-06T10:55:53;10.90;;;5.30;;
74656;SDS011;63185;45.642;13.764;2023-04-06T10:58:20;14.50;;;5.53;;
74656;SDS011;63185;45.642;13.764;2023-04-06T11:00:50;9.85;;;5.25;;
74656;SDS011;63185;45.642;13.764;2023-04-06T11:03:16;9.70;;;5.47;;
74656;SDS011;63185;45.642;13.764;2023-04-06T11:05:45;11.90;;;5.15;;
74656;SDS011;63185;45.642;13.764;2023-04-06T11:08:22;12.63;;;5.43;;
74656;SDS011;63185;45.642;13.764;2023-04-06T11:10:51;9.88;;;5.55;;
74656;SDS011;63185;45.642;13.764;2023-04-06T11:13:17;12.85;;;6.05;;
74656;SDS011;63185;45.642;13.764;2023-04-06T11:15:42;10.90;;;6.22;;
74656;SDS011;63185;45.642;13.764;2023-04-06T11:18:08;15.65;;;5.70;;
74656;SDS011;63185;45.642;13.764;2023-04-06T11:20:36;12.27;;;6.13;;
74656;SDS011;63185;45.642;13.764;2023-04-06T11:23:01;11.63;;;6.28;;
74656;SDS011;63185;45.642;13.764;2023-04-06T11:25:28;11.25;;;6.18;;
74656;SDS011;63185;45.642;13.764;2023-04-06T11:27:56;12.77;;;6.57;;
74656;SDS011;63185;45.642;13.764;2023-04-06T11:30:22;13.98;;;7.20;;
74656;SDS011;63185;45.642;13.764;2023-04-06T11:32:48;11.25;;;6.80;;
74656;SDS011;63185;45.642;13.764;2023-04-06T11:35:20;11.73;;;7.18;;
74656;SDS011;63185;45.642;13.764;2023-04-06T11:37:48;13.73;;;7.03;;
74656;SDS011;63185;45.642;13.764;2023-04-06T11:40:20;14.40;;;6.60;;
74656;SDS011;63185;45.642;13.764;2023-04-06T11:42:53;15.20;;;7.88;;
74656;SDS011;63185;45.642;13.764;2023-04-06T11:45:20;15.23;;;7.03;;
74656;SDS011;63185;45.642;13.764;2023-04-06T11:47:55;18.77;;;7.88;;
74656;SDS011;63185;45.642;13.764;2023-04-06T11:50:25;16.35;;;7.25;;
74656;SDS011;63185;45.642;13.764;2023-04-06T11:53:00;13.75;;;7.50;;
74656;SDS011;63185;45.642;13.764;2023-04-06T11:55:28;14.80;;;7.28;;
74656;SDS011;63185;45.642;13.764;2023-04-06T11:57:53;15.23;;;7.63;;
74656;SDS011;63185;45.642;13.764;2023-04-06T12:00:20;14.88;;;7.95;;
74656;SDS011;63185;45.642;13.764;2023-04-06T12:02:47;13.18;;;7.65;;
74656;SDS011;63185;45.642;13.764;2023-04-06T12:05:13;15.13;;;7.45;;
74656;SDS011;63185;45.642;13.764;2023-04-06T12:07:39;17.55;;;7.43;;
74656;SDS011;63185;45.642;13.764;2023-04-06T12:10:05;16.80;;;8.32;;
74656;SDS011;63185;45.642;13.764;2023-04-06T12:12:31;14.95;;;7.43;;
74656;SDS011;63185;45.642;13.764;2023-04-06T12:14:57;13.63;;;7.80;;
74656;SDS011;63185;45.642;13.764;2023-04-06T12:17:23;12.95;;;7.97;;
74656;SDS011;63185;45.642;13.764;2023-04-06T12:19:49;15.70;;;7.75;;
74656;SDS011;63185;45.642;13.764;2023-04-06T12:22:15;19.50;;;7.72;;
74656;SDS011;63185;45.642;13.764;2023-04-06T12:24:42;15.73;;;7.55;;
74656;SDS011;63185;45.642;13.764;2023-04-06T12:27:08;18.10;;;7.90;;
74656;SDS011;63185;45.642;13.764;2023-04-06T12:29:36;15.65;;;7.55;;
74656;SDS011;63185;45.642;13.764;2023-04-06T12:32:02;14.60;;;7.47;;
74656;SDS011;63185;45.642;13.764;2023-04-06T12:34:28;15.18;;;7.70;;
74656;SDS011;63185;45.642;13.764;2023-04-06T12:36:54;13.80;;;7.70;;
74656;SDS011;63185;45.642;13.764;2023-04-06T12:39:21;15.02;;;7.20;;
74656;SDS011;63185;45.642;13.764;2023-04-06T12:41:47;17.27;;;7.53;;
74656;SDS011;63185;45.642;13.764;2023-04-06T12:44:13;13.68;;;7.38;;
74656;SDS011;63185;45.642;13.764;2023-04-06T12:46:38;17.17;;;7.72;;
74656;SDS011;63185;45.642;13.764;2023-04-06T12:49:04;13.02;;;6.43;;
74656;SDS011;63185;45.642;13.764;2023-04-06T12:51:30;13.60;;;7.43;;
74656;SDS011;63185;45.642;13.764;2023-04-06T12:53:56;16.85;;;7.40;;
74656;SDS011;63185;45.642;13.764;2023-04-06T12:56:22;15.48;;;7.13;;
74656;SDS011;63185;45.642;13.764;2023-04-06T12:58:50;12.35;;;7.03;;
74656;SDS011;63185;45.642;13.764;2023-04-06T13:01:16;14.73;;;7.65;;
74656;SDS011;63185;45.642;13.764;2023-04-06T13:03:43;12.77;;;6.78;;
74656;SDS011;63185;45.642;13.764;2023-04-06T13:06:09;11.75;;;7.00;;
74656;SDS011;63185;45.642;13.764;2023-04-06T13:08:35;15.82;;;7.70;;
74656;SDS011;63185;45.642;13.764;2023-04-06T13:11:04;13.52;;;7.32;;
74656;SDS011;63185;45.642;13.764;2023-04-06T13:13:33;12.63;;;6.85;;
74656;SDS011;63185;45.642;13.764;2023-04-06T13:16:05;16.58;;;7.55;;
74656;SDS011;63185;45.642;13.764;2023-04-06T13:18:33;15.82;;;7.38;;
74656;SDS011;63185;45.642;13.764;2023-04-06T13:21:00;15.15;;;7.32;;
74656;SDS011;63185;45.642;13.764;2023-04-06T13:23:26;12.18;;;7.30;;
74656;SDS011;63185;45.642;13.764;2023-04-06T13:26:01;14.18;;;7.20;;
74656;SDS011;63185;45.642;13.764;2023-04-06T13:28:29;15.77;;;7.22;;
74656;SDS011;63185;45.642;13.764;2023-04-06T13:30:55;11.90;;;6.88;;
74656;SDS011;63185;45.642;13.764;2023-04-06T13:33:23;16.42;;;7.30;;
74656;SDS011;63185;45.642;13.764;2023-04-06T13:35:48;14.60;;;7.35;;
74656;SDS011;63185;45.642;13.764;2023-04-06T13:38:15;16.00;;;7.05;;
74656;SDS011;63185;45.642;13.764;2023-04-06T13:40:44;14.15;;;7.53;;
74656;SDS011;63185;45.642;13.764;2023-04-06T13:43:09;16.23;;;8.00;;
74656;SDS011;63185;45.642;13.764;2023-04-06T13:45:36;17.65;;;7.10;;
74656;SDS011;63185;45.642;13.764;2023-04-06T13:48:02;13.50;;;7.40;;
74656;SDS011;63185;45.642;13.764;2023-04-06T13:50:29;15.25;;;7.50;;
74656;SDS011;63185;45.642;13.764;2023-04-06T13:52:55;14.52;;;7.38;;
74656;SDS011;63185;45.642;13.764;2023-04-06T13:55:21;17.17;;;7.60;;
74656;SDS011;63185;45.642;13.764;2023-04-06T13:57:49;18.17;;;8.13;;
74656;SDS011;63185;45.642;13.764;2023-04-06T14:00:15;17.27;;;7.50;;
74656;SDS011;63185;45.642;13.764;2023-04-06T14:02:41;13.88;;;7.10;;
74656;SDS011;63185;45.642;13.764;2023-04-06T14:05:07;14.73;;;7.18;;
74656;SDS011;63185;45.642;13.764;2023-04-06T14:07:33;15.80;;;8.02;;
74656;SDS011;63185;45.642;13.764;2023-04-06T14:09:59;12.73;;;7.10;;
74656;SDS011;63185;45.642;13.764;2023-04-06T14:12:25;13.82;;;7.43;;
74656;SDS011;63185;45.642;13.764;2023-04-06T14:14:52;14.63;;;6.97;;
74656;SDS011;63185;45.642;13.764;2023-04-06T14:17:17;13.00;;;6.53;;
74656;SDS011;63185;45.642;13.764;2023-04-06T14:19:43;13.38;;;6.90;;
74656;SDS011;63185;45.642;13.764;2023-04-06T14:22:12;12.88;;;7.05;;
74656;SDS011;63185;45.642;13.764;2023-04-06T14:24:38;14.45;;;7.03;;
74656;SDS011;63185;45.642;13.764;2023-04-06T14:27:04;11.93;;;7.32;;
74656;SDS011;63185;45.642;13.764;2023-04-06T14:29:29;11.93;;;7.35;;
74656;SDS011;63185;45.642;13.764;2023-04-06T14:31:55;14.05;;;7.90;;
74656;SDS011;63185;45.642;13.764;2023-04-06T14:34:27;12.85;;;7.07;;
74656;SDS011;63185;45.642;13.764;2023-04-06T14:36:53;17.20;;;7.00;;
74656;SDS011;63185;45.642;13.764;2023-04-06T14:39:20;13.65;;;7.40;;
74656;SDS011;63185;45.642;13.764;2023-04-06T14:41:46;14.88;;;7.20;;
74656;SDS011;63185;45.642;13.764;2023-04-06T14:44:12;14.80;;;7.65;;